createdAt,value
2019-04-22T00:02:10.868Z,40.70
2019-04-22T00:04:47.560Z,46.57
2019-04-22T00:07:28.434Z,43.57
2019-04-22T00:10:06.309Z,39.03
2019-04-22T00:14:54.316Z,44.30
2019-04-22T00:17:35.318Z,42.77
2019-04-22T00:19:57.702Z,45.60
2019-04-22T00:24:51.157Z,48.03
2019-04-22T00:27:28.119Z,41.47
2019-04-22T00:29:59.940Z,43.90
2019-04-22T00:32:24.627Z,42.70
2019-04-22T00:34:53.493Z,46.77
2019-04-22T00:37:25.048Z,50.00
2019-04-22T00:39:51.811Z,46.07
2019-04-22T00:42:21.409Z,44.63
2019-04-22T00:44:58.472Z,52.60
2019-04-22T00:47:26.405Z,52.53
2019-04-22T00:52:21.764Z,48.83
2019-04-22T00:54:55.699Z,47.93
2019-04-22T00:57:15.417Z,46.07
2019-04-22T00:59:48.482Z,52.43
2019-04-22T01:02:13.109Z,46.43
2019-04-22T01:04:46.491Z,52.47
2019-04-22T01:07:11.853Z,49.40
2019-04-22T01:09:50.200Z,46.90
2019-04-22T01:12:13.836Z,48.63
2019-04-22T01:14:41.367Z,48.47
2019-04-22T01:17:06.621Z,47.57
2019-04-22T01:19:45.148Z,47.47
2019-04-22T01:22:11.895Z,47.47
2019-04-22T01:24:32.720Z,44.90
2019-04-22T01:26:58.227Z,55.63
2019-04-22T01:29:22.855Z,50.60
2019-04-22T01:31:43.457Z,46.97
2019-04-22T01:34:24.720Z,55.33
2019-04-22T01:36:58.709Z,50.67
2019-04-22T01:39:33.830Z,47.97
2019-04-22T01:42:06.224Z,62.13
2019-04-22T01:44:33.187Z,48.90
2019-04-22T01:47:00.327Z,49.83
2019-04-22T01:49:30.220Z,47.97
2019-04-22T01:54:35.133Z,50.33
2019-04-22T01:57:01.543Z,50.43
2019-04-22T01:59:19.839Z,61.83
2019-04-22T02:01:57.428Z,52.30
2019-04-22T02:04:34.505Z,51.10
2019-04-22T02:06:59.830Z,51.57
2019-04-22T02:11:58.549Z,55.30
2019-04-22T02:14:25.323Z,53.10
2019-04-22T02:16:51.524Z,55.73
2019-04-22T02:19:25.449Z,52.43
2019-04-22T02:21:51.175Z,53.73
2019-04-22T02:24:21.439Z,54.67
2019-04-22T02:29:17.066Z,50.03
2019-04-22T02:31:59.114Z,53.67
2019-04-22T02:36:41.083Z,53.30
2019-04-22T02:41:43.805Z,52.73
2019-04-22T02:44:14.029Z,49.77
2019-04-22T02:46:52.972Z,53.63
2019-04-22T02:49:22.256Z,49.70
2019-04-22T02:51:39.667Z,53.17
2019-04-22T02:56:38.120Z,50.13
2019-04-22T03:04:09.663Z,56.27
2019-04-22T03:09:14.453Z,53.57
2019-04-22T03:11:45.662Z,54.13
2019-04-22T03:19:28.019Z,58.57
2019-04-22T03:21:31.316Z,61.17
2019-04-22T03:24:20.140Z,54.17
2019-04-22T03:26:35.129Z,57.97
2019-04-22T03:28:57.075Z,52.00
2019-04-22T03:35:20.001Z,55.90
2019-04-22T03:39:47.286Z,60.73
2019-04-22T03:44:33.322Z,53.90
2019-04-22T03:52:05.342Z,50.17
2019-04-22T03:57:18.127Z,59.47
2019-04-22T03:59:39.115Z,54.57
2019-04-22T04:01:55.357Z,53.47
2019-04-22T04:04:24.340Z,55.50
2019-04-22T04:07:03.845Z,48.60
2019-04-22T04:16:56.432Z,51.17
2019-04-22T04:19:23.342Z,49.93
2019-04-22T04:21:41.873Z,54.80
2019-04-22T04:26:59.177Z,55.40
2019-04-22T04:29:26.333Z,48.57
2019-04-22T04:34:22.018Z,53.60
2019-04-22T04:36:42.236Z,54.10
2019-04-22T04:39:05.641Z,54.47
2019-04-22T04:41:42.070Z,51.50
2019-04-22T04:44:15.234Z,54.77
2019-04-22T04:49:09.008Z,53.13
2019-04-22T04:51:43.981Z,52.93
2019-04-22T04:54:12.596Z,47.00
2019-04-22T04:59:16.747Z,53.70
2019-04-22T05:01:35.465Z,54.83
2019-04-22T05:04:18.613Z,47.50
2019-04-22T05:09:11.822Z,52.47
2019-04-22T05:11:26.847Z,51.47
2019-04-22T05:14:03.299Z,51.57
2019-04-22T05:18:50.974Z,52.17
2019-04-22T05:21:16.428Z,47.17
2019-04-22T05:23:43.933Z,45.07
2019-04-22T05:26:22.363Z,47.17
2019-04-22T05:28:42.290Z,48.77
2019-04-22T05:31:16.203Z,45.90
2019-04-22T05:33:42.502Z,46.30
2019-04-22T05:36:10.184Z,46.43
2019-04-22T05:38:39.987Z,51.17
2019-04-22T05:41:05.652Z,52.70
2019-04-22T05:43:34.304Z,50.57
2019-04-22T05:46:05.809Z,47.17
2019-04-22T05:48:41.855Z,50.33
2019-04-22T05:51:04.482Z,46.03
2019-04-22T05:53:35.665Z,45.03
2019-04-22T05:56:10.193Z,45.37
2019-04-22T05:58:31.598Z,42.97
2019-04-22T06:01:30.724Z,41.73
2019-04-22T06:03:39.446Z,39.70
2019-04-22T06:06:06.513Z,37.33
2019-04-22T06:08:33.675Z,35.80
2019-04-22T06:11:05.689Z,51.63
2019-04-22T06:13:28.089Z,37.70
2019-04-22T06:15:59.109Z,35.80
2019-04-22T06:18:27.191Z,38.47
2019-04-22T06:21:03.705Z,34.87
2019-04-22T06:23:34.643Z,42.47
2019-04-22T06:26:14.711Z,36.67
2019-04-22T06:28:35.212Z,36.70
2019-04-22T06:33:27.394Z,38.07
2019-04-22T06:35:56.307Z,42.10
2019-04-22T06:40:54.054Z,36.67
2019-04-22T06:43:22.247Z,35.37
2019-04-22T06:45:44.862Z,32.53
2019-04-22T06:53:25.059Z,33.97
2019-04-22T06:55:52.842Z,36.03
2019-04-22T06:58:16.709Z,31.63
2019-04-22T07:00:47.289Z,41.93
2019-04-22T07:05:46.422Z,35.37
2019-04-22T07:10:59.457Z,40.47
2019-04-22T07:13:21.256Z,34.17
2019-04-22T07:18:19.856Z,33.57
2019-04-22T07:20:44.546Z,32.60
2019-04-22T07:23:13.871Z,31.17
2019-04-22T07:25:40.594Z,36.63
2019-04-22T07:28:14.208Z,28.50
2019-04-22T07:30:41.046Z,32.97
2019-04-22T07:35:51.615Z,34.37
2019-04-22T07:38:14.336Z,38.33
2019-04-22T07:40:38.933Z,28.63
2019-04-22T07:43:09.016Z,34.90
2019-04-22T07:45:36.169Z,34.43
2019-04-22T07:48:15.230Z,34.60
2019-04-22T07:50:42.742Z,36.17
2019-04-22T07:53:00.925Z,33.60
2019-04-22T07:55:29.327Z,37.40
2019-04-22T07:58:02.053Z,30.47
2019-04-22T08:00:33.067Z,35.40
2019-04-22T08:03:01.314Z,32.40
2019-04-22T08:08:02.587Z,34.20
2019-04-22T08:10:31.341Z,41.80
2019-04-22T08:12:55.443Z,45.43
2019-04-22T08:15:21.282Z,29.47
2019-04-22T08:20:23.282Z,29.00
2019-04-22T08:22:51.054Z,27.87
2019-04-22T08:25:18.127Z,34.67
2019-04-22T08:27:54.471Z,29.20
2019-04-22T08:30:20.513Z,30.77
2019-04-22T08:32:49.294Z,28.80
2019-04-22T08:35:27.915Z,28.03
2019-04-22T08:37:51.212Z,32.27
2019-04-22T08:40:20.675Z,27.83
2019-04-22T08:42:53.427Z,26.73
2019-04-22T08:45:23.075Z,27.23
2019-04-22T08:47:42.388Z,28.87
2019-04-22T08:50:18.497Z,35.83
2019-04-22T08:52:42.081Z,27.33
2019-04-22T08:55:12.706Z,31.63
2019-04-22T09:00:07.228Z,27.03
2019-04-22T09:02:38.736Z,25.40
2019-04-22T09:05:12.263Z,30.00
2019-04-22T09:07:36.983Z,23.27
2019-04-22T09:10:11.425Z,25.77
2019-04-22T09:15:08.157Z,28.80
2019-04-22T09:17:34.988Z,23.43
2019-04-22T09:20:10.870Z,21.37
2019-04-22T09:22:50.338Z,23.20
2019-04-22T09:24:58.580Z,24.33
2019-04-22T09:30:01.595Z,25.03
2019-04-22T09:32:36.421Z,24.13
2019-04-22T09:34:56.270Z,23.63
2019-04-22T09:37:34.509Z,18.97
2019-04-22T09:40:08.737Z,21.83
2019-04-22T09:44:55.583Z,20.73
2019-04-22T09:47:24.930Z,23.60
2019-04-22T09:50:12.124Z,21.53
2019-04-22T09:52:22.475Z,24.87
2019-04-22T09:55:00.164Z,22.47
2019-04-22T09:57:21.144Z,20.17
2019-04-22T10:00:00.634Z,17.63
2019-04-22T10:04:57.123Z,21.80
2019-04-22T10:07:23.847Z,19.47
2019-04-22T10:09:59.378Z,20.40
2019-04-22T10:12:19.061Z,19.23
2019-04-22T10:17:15.482Z,16.00
2019-04-22T10:19:43.945Z,16.27
2019-04-22T10:22:19.952Z,16.83
2019-04-22T10:24:39.120Z,15.00
2019-04-22T10:27:07.758Z,14.83
2019-04-22T10:29:47.320Z,17.77
2019-04-22T10:32:06.771Z,20.90
2019-04-22T10:34:26.089Z,20.10
2019-04-22T10:36:50.473Z,15.00
2019-04-22T10:39:12.817Z,17.77
2019-04-22T10:41:41.671Z,18.00
2019-04-22T10:44:11.027Z,18.27
2019-04-22T10:46:40.240Z,20.27
2019-04-22T10:49:08.472Z,20.93
2019-04-22T10:51:36.991Z,14.33
2019-04-22T10:54:07.258Z,16.03
2019-04-22T10:56:34.880Z,19.37
2019-04-22T10:59:06.825Z,16.10
2019-04-22T11:01:38.148Z,17.00
2019-04-22T11:04:03.708Z,14.03
2019-04-22T11:06:38.923Z,20.20
2019-04-22T11:09:04.880Z,18.57
2019-04-22T11:11:42.417Z,13.97
2019-04-22T11:14:00.164Z,14.63
2019-04-22T11:16:29.893Z,13.60
2019-04-22T11:18:59.321Z,10.67
2019-04-22T11:21:29.574Z,12.07
2019-04-22T11:23:58.699Z,15.27
2019-04-22T11:26:28.087Z,11.60
2019-04-22T11:28:56.010Z,17.83
2019-04-22T11:31:24.235Z,13.73
2019-04-22T11:33:56.862Z,13.73
2019-04-22T11:36:30.155Z,12.77
2019-04-22T11:39:00.125Z,10.57
2019-04-22T11:41:25.609Z,10.60
2019-04-22T11:43:56.921Z,12.40
2019-04-22T11:46:25.383Z,12.90
2019-04-22T11:48:54.097Z,8.83
2019-04-22T11:51:22.539Z,11.47
2019-04-22T11:53:52.582Z,15.43
2019-04-22T11:56:20.827Z,9.83
2019-04-22T11:58:50.717Z,9.77
2019-04-22T12:01:19.321Z,10.27
2019-04-22T12:03:49.614Z,10.40
2019-04-22T12:06:18.006Z,12.83
2019-04-22T12:08:47.726Z,10.90
2019-04-22T12:11:16.701Z,10.87
2019-04-22T12:13:46.286Z,11.10
2019-04-22T12:16:14.479Z,9.73
2019-04-22T12:18:44.893Z,11.40
2019-04-22T12:21:13.277Z,15.53
2019-04-22T12:23:43.462Z,12.00
2019-04-22T12:26:15.054Z,13.17
2019-04-22T12:28:40.935Z,12.80
2019-04-22T12:31:09.465Z,9.20
2019-04-22T12:33:39.338Z,12.40
2019-04-22T12:36:10.978Z,7.80
2019-04-22T12:38:39.904Z,12.73
2019-04-22T12:41:11.853Z,12.77
2019-04-22T12:43:37.319Z,9.43
2019-04-22T12:46:06.131Z,11.47
2019-04-22T12:48:35.114Z,8.40
2019-04-22T12:51:05.015Z,8.90
2019-04-22T12:53:33.975Z,12.40
2019-04-22T12:56:04.955Z,16.20
2019-04-22T12:58:41.316Z,10.13
2019-04-22T13:01:10.787Z,8.13
2019-04-22T13:03:38.412Z,11.97
2019-04-22T13:06:07.824Z,20.40
2019-04-22T13:08:38.102Z,9.03
2019-04-22T13:11:12.042Z,16.07
2019-04-22T13:13:34.751Z,10.13
2019-04-22T13:16:04.749Z,12.07
2019-04-22T13:18:40.350Z,9.80
2019-04-22T13:21:02.405Z,9.10
2019-04-22T13:23:31.855Z,12.93
2019-04-22T13:26:00.918Z,9.30
2019-04-22T13:28:29.505Z,14.27
2019-04-22T13:31:01.469Z,14.17
2019-04-22T13:33:28.512Z,12.63
2019-04-22T13:35:57.455Z,9.50
2019-04-22T13:38:25.067Z,13.27
2019-04-22T13:41:08.290Z,10.20
2019-04-22T13:43:22.895Z,7.43
2019-04-22T13:45:54.095Z,10.13
2019-04-22T13:48:38.223Z,6.40
2019-04-22T13:51:26.200Z,12.77
2019-04-22T13:56:15.384Z,9.70
2019-04-22T13:58:31.319Z,13.53
2019-04-22T14:00:46.904Z,17.67
2019-04-22T14:03:22.387Z,17.57
2019-04-22T14:05:50.889Z,11.63
2019-04-22T14:08:20.368Z,10.03
2019-04-22T14:10:50.283Z,13.23
2019-04-22T14:13:19.504Z,11.33
2019-04-22T14:15:48.681Z,13.07
2019-04-22T14:18:17.165Z,11.17
2019-04-22T14:20:46.946Z,13.27
2019-04-22T14:23:15.949Z,14.00
2019-04-22T14:25:43.977Z,19.20
2019-04-22T14:28:17.297Z,13.77
2019-04-22T14:30:42.529Z,10.97
2019-04-22T14:33:11.910Z,7.73
2019-04-22T14:35:39.896Z,12.97
2019-04-22T14:38:08.495Z,12.93
2019-04-22T14:40:38.572Z,9.10
2019-04-22T14:43:33.280Z,9.50
2019-04-22T14:48:36.233Z,9.03
2019-04-22T14:50:59.125Z,13.03
2019-04-22T14:53:27.643Z,15.53
2019-04-22T14:55:36.724Z,8.90
2019-04-22T14:58:02.664Z,13.17
2019-04-22T15:00:31.750Z,5.40
2019-04-22T15:03:01.668Z,16.33
2019-04-22T15:05:30.472Z,9.87
2019-04-22T15:07:59.285Z,12.47
2019-04-22T15:10:28.254Z,9.63
2019-04-22T15:12:59.122Z,12.33
2019-04-22T15:15:31.291Z,15.93
2019-04-22T15:18:03.917Z,5.43
2019-04-22T15:20:39.555Z,6.37
2019-04-22T15:23:08.617Z,14.53
2019-04-22T15:25:36.935Z,11.67
2019-04-22T15:28:05.896Z,7.90
2019-04-22T15:30:37.683Z,7.20
2019-04-22T15:33:07.471Z,9.93
2019-04-22T15:35:35.489Z,12.47
2019-04-22T15:38:04.789Z,12.40
2019-04-22T15:40:34.433Z,7.07
2019-04-22T15:43:02.635Z,8.97
2019-04-22T15:45:30.736Z,6.03
2019-04-22T15:47:59.879Z,14.23
2019-04-22T15:50:30.689Z,9.13
2019-04-22T15:53:00.743Z,8.53
2019-04-22T15:55:29.205Z,17.57
2019-04-22T15:57:59.538Z,12.10
2019-04-22T16:00:38.321Z,7.10
2019-04-22T16:02:57.566Z,11.00
2019-04-22T16:05:25.378Z,13.50
2019-04-22T16:07:54.982Z,17.53
2019-04-22T16:10:23.951Z,15.13
2019-04-22T16:13:02.788Z,13.00
2019-04-22T16:15:24.723Z,13.90
2019-04-22T16:17:54.977Z,9.20
2019-04-22T16:20:23.564Z,16.57
2019-04-22T16:23:20.834Z,13.20
2019-04-22T16:25:53.381Z,15.47
2019-04-22T16:28:21.925Z,8.50
2019-04-22T16:30:51.093Z,15.73
2019-04-22T16:33:19.589Z,18.37
2019-04-22T16:35:48.945Z,8.57
2019-04-22T16:38:17.279Z,16.60
2019-04-22T16:40:46.099Z,58.33
2019-04-22T16:43:16.484Z,8.47
2019-04-22T16:45:45.381Z,30.53
2019-04-22T16:48:13.667Z,11.00
2019-04-22T16:50:46.619Z,13.23
2019-04-22T16:53:14.248Z,9.53
2019-04-22T16:55:42.777Z,48.13
2019-04-22T16:58:12.689Z,22.73
2019-04-22T17:00:42.763Z,11.80
2019-04-22T17:03:43.018Z,13.40
2019-04-22T17:06:17.450Z,9.33
2019-04-22T17:08:46.681Z,14.63
2019-04-22T17:11:15.973Z,13.90
2019-04-22T17:13:46.101Z,10.87
2019-04-22T17:16:13.972Z,13.73
2019-04-22T17:18:43.614Z,8.13
2019-04-22T17:21:12.981Z,7.47
2019-04-22T17:23:41.348Z,7.00
2019-04-22T17:26:10.613Z,6.90
2019-04-22T17:28:39.538Z,10.50
2019-04-22T17:31:07.022Z,9.53
2019-04-22T17:33:37.130Z,9.87
2019-04-22T17:36:05.397Z,12.40
2019-04-22T17:38:42.810Z,6.53
2019-04-22T17:41:18.725Z,5.50
2019-04-22T17:43:53.829Z,12.47
2019-04-22T17:46:48.665Z,3.33
2019-04-22T17:49:37.184Z,10.17
2019-04-22T17:52:10.686Z,5.93
2019-04-22T17:54:30.738Z,9.40
2019-04-22T17:57:06.358Z,5.23
2019-04-22T17:59:35.935Z,11.37
2019-04-22T18:02:05.787Z,4.13
2019-04-22T18:04:14.402Z,5.63
2019-04-22T18:07:15.791Z,5.23
2019-04-22T18:09:51.452Z,13.33
2019-04-22T18:12:15.740Z,14.07
2019-04-22T18:14:55.890Z,6.23
2019-04-22T18:17:08.447Z,11.63
2019-04-22T18:19:32.567Z,8.60
2019-04-22T18:22:01.195Z,8.30
2019-04-22T18:24:25.888Z,4.93
2019-04-22T18:27:06.950Z,3.60
2019-04-22T18:29:33.003Z,9.93
2019-04-22T18:31:55.790Z,12.57
2019-04-22T18:34:25.594Z,7.13
2019-04-22T18:36:59.112Z,9.43
2019-04-22T18:39:37.031Z,6.03
2019-04-22T18:41:58.608Z,5.93
2019-04-22T18:44:34.826Z,4.40
2019-04-22T18:46:56.402Z,8.33
2019-04-22T18:49:27.784Z,9.00
2019-04-22T18:52:04.299Z,10.97
2019-04-22T18:54:42.302Z,6.93
2019-04-22T18:57:09.778Z,5.73
2019-04-22T18:59:27.833Z,13.67
2019-04-22T19:01:57.611Z,11.33
2019-04-22T19:04:27.443Z,6.93
2019-04-22T19:07:15.457Z,5.20
2019-04-22T19:09:41.435Z,8.33
2019-04-22T19:12:30.668Z,11.00
2019-04-22T19:14:45.313Z,11.07
2019-04-22T19:17:19.035Z,9.17
2019-04-22T19:19:46.861Z,9.20
2019-04-22T19:22:03.534Z,12.17
2019-04-22T19:24:28.920Z,4.03
2019-04-22T19:27:02.107Z,10.30
2019-04-22T19:29:31.655Z,4.30
2019-04-22T19:32:01.286Z,7.80
2019-04-22T19:34:31.792Z,10.77
2019-04-22T19:37:03.583Z,6.13
2019-04-22T19:39:25.027Z,4.93
2019-04-22T19:42:08.221Z,9.20
2019-04-22T19:44:29.255Z,11.43
2019-04-22T19:47:18.630Z,3.90
2019-04-22T19:49:31.745Z,9.43
2019-04-22T19:54:23.213Z,6.80
2019-04-22T19:56:41.495Z,7.87
2019-04-22T19:59:15.002Z,8.20
2019-04-22T20:02:00.636Z,6.33
2019-04-22T20:04:47.979Z,12.30
2019-04-22T20:07:13.009Z,12.93
2019-04-22T20:09:46.830Z,5.60
2019-04-22T20:12:13.520Z,8.90
2019-04-22T20:14:43.572Z,15.20
2019-04-22T20:17:00.697Z,5.80
2019-04-22T20:19:45.457Z,7.63
2019-04-22T20:22:09.070Z,9.47
2019-04-22T20:24:20.724Z,8.93
2019-04-22T20:27:02.980Z,7.90
2019-04-22T20:29:40.090Z,4.70
2019-04-22T20:32:05.295Z,5.50
2019-04-22T20:34:35.536Z,7.60
2019-04-22T20:39:36.729Z,5.17
2019-04-22T20:42:12.578Z,8.43
2019-04-22T20:44:37.277Z,9.00
2019-04-22T20:46:58.979Z,6.40
2019-04-22T20:49:30.938Z,10.20
2019-04-22T20:52:06.356Z,8.37
2019-04-22T20:54:23.251Z,5.73
2019-04-22T20:56:51.855Z,7.40
2019-04-22T20:59:24.272Z,5.70
2019-04-22T21:01:49.267Z,7.53
2019-04-22T21:04:11.577Z,5.97
2019-04-22T21:06:47.276Z,4.80
2019-04-22T21:09:22.052Z,12.43
2019-04-22T21:11:45.143Z,6.00
2019-04-22T21:14:16.136Z,8.73
2019-04-22T21:16:51.643Z,8.13
2019-04-22T21:19:29.644Z,5.63
2019-04-22T21:21:50.195Z,8.87
2019-04-22T21:24:09.217Z,7.77
2019-04-22T21:26:43.781Z,9.43
2019-04-22T21:29:13.315Z,5.60
2019-04-22T21:31:50.274Z,9.43
2019-04-22T21:34:10.260Z,11.47
2019-04-22T21:36:41.297Z,8.67
2019-04-22T21:39:09.659Z,7.73
2019-04-22T21:41:44.740Z,15.93
2019-04-22T21:44:12.457Z,7.87
2019-04-22T21:46:42.581Z,9.57
2019-04-22T21:49:16.582Z,16.80
2019-04-22T21:51:47.079Z,6.20
2019-04-22T21:56:56.549Z,7.53
2019-04-22T21:59:15.568Z,12.57
2019-04-22T22:01:50.027Z,7.33
2019-04-22T22:04:15.249Z,6.60
2019-04-22T22:06:33.635Z,5.50
2019-04-22T22:09:07.170Z,5.07
2019-04-22T22:11:35.811Z,7.10
2019-04-22T22:14:07.588Z,8.17
2019-04-22T22:16:33.562Z,12.97
2019-04-22T22:19:08.146Z,7.87
2019-04-22T22:21:43.890Z,6.67
2019-04-22T22:24:11.559Z,10.70
2019-04-22T22:26:35.290Z,7.47
2019-04-22T22:29:05.296Z,5.50
2019-04-22T22:31:40.118Z,5.87
2019-04-22T22:34:09.483Z,9.83
2019-04-22T22:36:23.601Z,8.80
2019-04-22T22:38:55.748Z,13.57
2019-04-22T22:41:09.997Z,7.60
2019-04-22T22:43:43.624Z,6.00
2019-04-22T22:46:22.198Z,5.33
2019-04-22T22:48:59.795Z,9.63
2019-04-22T22:51:36.854Z,9.93
2019-04-22T22:54:00.214Z,6.47
2019-04-22T22:56:25.335Z,16.07
2019-04-22T22:58:52.331Z,7.40
2019-04-22T23:01:23.367Z,9.43
2019-04-22T23:04:08.867Z,4.37
2019-04-22T23:06:27.597Z,10.03
2019-04-22T23:08:52.699Z,4.23
2019-04-22T23:11:20.606Z,9.20
2019-04-22T23:13:49.277Z,8.07
2019-04-22T23:16:10.428Z,5.93
2019-04-22T23:18:25.868Z,5.17
2019-04-22T23:20:57.222Z,8.80
2019-04-22T23:23:43.954Z,4.03
2019-04-22T23:26:13.804Z,18.67
2019-04-22T23:28:51.067Z,8.17
2019-04-22T23:31:20.725Z,6.43
2019-04-22T23:33:57.247Z,7.60
2019-04-22T23:36:25.867Z,11.67
2019-04-22T23:39:09.772Z,8.00
2019-04-22T23:41:51.077Z,8.80
2019-04-22T23:44:12.802Z,8.63
2019-04-22T23:46:34.745Z,8.63
2019-04-22T23:49:04.474Z,15.07
2019-04-22T23:51:39.687Z,8.93
2019-04-22T23:54:10.721Z,6.53
2019-04-22T23:56:32.097Z,13.67
2019-04-22T23:59:09.782Z,5.20
